createdAt,value
2019-02-12T00:00:09.311Z,5.70
2019-02-12T00:05:13.565Z,5.70
2019-02-12T00:10:17.815Z,5.60
2019-02-12T00:15:22.006Z,5.50
2019-02-12T00:20:26.239Z,5.50
2019-02-12T00:25:30.469Z,5.50
2019-02-12T00:30:38.369Z,5.60
2019-02-12T00:35:42.597Z,5.50
2019-02-12T00:40:46.801Z,5.40
2019-02-12T00:45:50.996Z,5.40
2019-02-12T00:50:55.172Z,5.40
2019-02-12T00:55:59.347Z,5.40
2019-02-12T01:01:03.546Z,5.20
2019-02-12T01:06:07.813Z,5.30
2019-02-12T01:11:11.978Z,5.40
2019-02-12T01:16:16.252Z,5.40
2019-02-12T01:21:26.109Z,5.50
2019-02-12T01:26:26.357Z,5.40
2019-02-12T01:31:30.542Z,5.50
2019-02-12T01:36:34.723Z,5.40
2019-02-12T01:41:38.908Z,5.40
2019-02-12T01:46:43.120Z,5.60
2019-02-12T01:51:47.408Z,5.30
2019-02-12T01:56:51.579Z,5.40
2019-02-12T02:01:55.870Z,5.30
2019-02-12T02:07:00.205Z,5.40
2019-02-12T02:12:04.448Z,5.40
2019-02-12T02:17:08.696Z,5.30
2019-02-12T02:22:12.868Z,5.10
2019-02-12T02:27:17.052Z,5.10
2019-02-12T02:32:21.283Z,5.20
2019-02-12T02:37:25.579Z,5.20
2019-02-12T02:42:29.827Z,5.20
2019-02-12T02:47:33.996Z,5.10
2019-02-12T02:52:38.198Z,5.10
2019-02-12T02:57:42.383Z,5.00
2019-02-12T03:02:47.118Z,5.00
2019-02-12T03:07:51.303Z,5.00
2019-02-12T03:12:55.480Z,5.00
2019-02-12T03:17:59.674Z,4.90
2019-02-12T03:23:03.850Z,4.70
2019-02-12T03:28:08.056Z,4.60
2019-02-12T03:33:12.243Z,4.60
2019-02-12T03:38:16.458Z,4.60
2019-02-12T03:43:20.641Z,4.60
2019-02-12T03:48:24.916Z,4.60
2019-02-12T03:53:29.158Z,4.70
2019-02-12T03:58:33.364Z,4.70
2019-02-12T04:03:37.625Z,4.90
2019-02-12T04:08:41.816Z,4.70
2019-02-12T04:13:46.105Z,4.70
2019-02-12T04:18:50.287Z,4.60
2019-02-12T04:23:54.463Z,4.40
2019-02-12T04:28:58.655Z,4.50
2019-02-12T04:34:02.851Z,4.70
2019-02-12T04:39:07.104Z,4.70
2019-02-12T04:44:11.400Z,4.70
2019-02-12T04:49:15.687Z,4.50
2019-02-12T04:54:19.939Z,4.60
2019-02-12T04:59:24.371Z,4.60
2019-02-12T05:04:28.571Z,4.50
2019-02-12T05:09:33.864Z,4.60
2019-02-12T05:14:38.143Z,4.50
2019-02-12T05:19:42.337Z,4.60
2019-02-12T05:24:46.519Z,4.60
2019-02-12T05:29:50.697Z,4.60
2019-02-12T05:34:55.891Z,4.60
2019-02-12T05:40:00.345Z,4.60
2019-02-12T05:45:05.222Z,4.70
2019-02-12T05:50:11.340Z,4.50
2019-02-12T05:55:15.527Z,4.50
2019-02-12T06:00:21.467Z,4.60
2019-02-12T06:05:27.305Z,4.50
2019-02-12T06:10:31.507Z,4.40
2019-02-12T06:15:35.739Z,4.40
2019-02-12T06:20:39.927Z,4.40
2019-02-12T06:25:44.108Z,4.40
2019-02-12T06:30:48.400Z,4.50
2019-02-12T06:35:52.658Z,4.60
2019-02-12T06:40:56.868Z,4.70
2019-02-12T06:46:01.045Z,4.80
2019-02-12T06:51:05.366Z,4.80
2019-02-12T06:56:09.554Z,4.90
2019-02-12T07:01:13.767Z,4.80
2019-02-12T07:06:40.600Z,4.80
2019-02-12T07:12:25.170Z,4.80
2019-02-12T07:18:22.634Z,5.00
2019-02-12T07:23:47.429Z,5.10
2019-02-12T07:29:17.553Z,5.00
2019-02-12T07:34:48.900Z,5.00
2019-02-12T07:40:20.094Z,5.30
2019-02-12T07:46:05.508Z,5.70
2019-02-12T07:51:23.468Z,5.70
2019-02-12T07:56:51.865Z,5.90
2019-02-12T08:02:19.956Z,6.00
2019-02-12T08:07:55.528Z,5.60
2019-02-12T08:13:32.031Z,5.60
2019-02-12T08:19:19.047Z,5.70
2019-02-12T08:24:54.935Z,5.70
2019-02-12T08:30:23.543Z,6.20
2019-02-12T08:35:57.747Z,6.70
2019-02-12T08:41:48.774Z,7.20
2019-02-12T08:47:37.018Z,7.30
2019-02-12T08:53:02.168Z,7.60
2019-02-12T08:58:33.132Z,8.20
2019-02-12T09:04:24.207Z,8.00
2019-02-12T09:10:20.894Z,8.00
2019-02-12T09:16:05.749Z,9.30
2019-02-12T09:21:46.399Z,8.00
2019-02-12T09:27:37.293Z,8.20
2019-02-12T09:33:09.695Z,9.70
2019-02-12T09:38:44.167Z,8.90
2019-02-12T09:44:32.429Z,9.30
2019-02-12T09:49:55.095Z,9.70
2019-02-12T09:55:28.547Z,9.10
2019-02-12T10:00:48.305Z,8.50
2019-02-12T10:06:34.016Z,8.40
2019-02-12T10:11:56.086Z,9.30
2019-02-12T10:17:08.214Z,8.80
2019-02-12T10:22:41.846Z,10.10
2019-02-12T10:27:58.356Z,10.80
2019-02-12T10:33:02.630Z,10.00
2019-02-12T10:38:06.996Z,9.70
2019-02-12T10:43:11.201Z,8.70
2019-02-12T10:48:15.481Z,9.10
2019-02-12T10:53:19.723Z,9.30
2019-02-12T10:58:24.038Z,9.80
2019-02-12T11:03:28.257Z,9.60
2019-02-12T11:08:32.464Z,9.10
2019-02-12T11:13:36.720Z,8.80
2019-02-12T11:18:40.924Z,9.00
2019-02-12T11:23:45.118Z,9.40
2019-02-12T11:28:49.307Z,10.90
2019-02-12T11:33:53.572Z,10.30
2019-02-12T11:38:57.840Z,10.20
2019-02-12T11:44:02.028Z,10.40
2019-02-12T11:49:06.237Z,12.20
2019-02-12T11:54:10.450Z,12.80
2019-02-12T11:59:14.649Z,13.00
2019-02-12T12:04:18.861Z,14.80
2019-02-12T12:09:23.106Z,14.50
2019-02-12T12:15:36.684Z,15.70
2019-02-12T12:20:40.877Z,14.70
2019-02-12T12:25:45.072Z,13.20
2019-02-12T12:30:49.254Z,12.60
2019-02-12T12:35:53.449Z,13.10
2019-02-12T12:40:57.686Z,12.40
2019-02-12T12:51:05.882Z,14.20
2019-02-12T12:56:10.094Z,15.10
2019-02-12T13:01:14.477Z,13.60
2019-02-12T13:06:18.777Z,13.00
2019-02-12T13:11:23.026Z,12.00
2019-02-12T13:16:27.279Z,11.90
2019-02-12T13:21:31.475Z,11.40
2019-02-12T13:26:35.685Z,11.10
2019-02-12T13:31:39.965Z,11.30
2019-02-12T13:36:44.167Z,10.70
2019-02-12T13:41:48.431Z,9.80
2019-02-12T13:46:52.722Z,9.60
2019-02-12T13:51:56.931Z,9.40
2019-02-12T13:57:01.157Z,9.20
2019-02-12T14:02:05.426Z,9.50
2019-02-12T14:07:09.867Z,9.30
2019-02-12T14:12:15.803Z,9.00
2019-02-12T14:17:20.215Z,8.60
2019-02-12T14:22:24.444Z,8.40
2019-02-12T14:27:28.741Z,8.50
2019-02-12T14:32:33.047Z,8.60
2019-02-12T14:37:37.314Z,8.50
2019-02-12T14:42:41.618Z,8.60
2019-02-12T14:47:45.890Z,8.90
2019-02-12T14:52:50.247Z,9.00
2019-02-12T14:57:54.474Z,8.60
2019-02-12T15:02:58.657Z,8.30
2019-02-12T15:08:02.841Z,8.30
2019-02-12T15:13:07.316Z,8.40
2019-02-12T15:18:11.541Z,8.40
2019-02-12T15:23:15.723Z,8.50
2019-02-12T15:28:20.033Z,8.40
2019-02-12T15:33:24.297Z,8.40
2019-02-12T15:38:28.491Z,8.40
2019-02-12T15:43:32.693Z,8.30
2019-02-12T15:48:36.941Z,8.50
2019-02-12T15:53:41.156Z,8.40
2019-02-12T15:58:45.367Z,8.30
2019-02-12T16:03:49.629Z,8.10
2019-02-12T16:08:54.370Z,8.20
2019-02-12T16:13:59.795Z,8.30
2019-02-12T16:19:05.731Z,8.30
2019-02-12T16:24:10.311Z,8.20
2019-02-12T16:29:14.608Z,8.20
2019-02-12T16:34:20.330Z,8.00
2019-02-12T16:39:24.637Z,8.00
2019-02-12T16:44:28.925Z,7.90
2019-02-12T16:49:33.224Z,7.80
2019-02-12T16:54:37.438Z,7.80
2019-02-12T16:59:41.715Z,7.80
2019-02-12T17:04:46.011Z,7.80
2019-02-12T17:09:52.321Z,7.70
2019-02-12T17:14:56.265Z,7.50
2019-02-12T17:20:00.541Z,7.30
2019-02-12T17:25:05.486Z,7.30
2019-02-12T17:30:11.746Z,6.90
2019-02-12T17:35:15.936Z,6.90
2019-02-12T17:40:20.239Z,6.70
2019-02-12T17:45:24.440Z,6.70
2019-02-12T17:50:28.729Z,6.90
2019-02-12T17:55:32.930Z,6.60
2019-02-12T18:00:40.863Z,6.30
2019-02-12T18:05:45.216Z,6.40
2019-02-12T18:10:49.427Z,6.50
2019-02-12T18:15:53.639Z,6.70
2019-02-12T18:20:57.901Z,6.80
2019-02-12T18:26:02.126Z,6.80
2019-02-12T18:31:06.490Z,6.70
2019-02-12T18:36:13.092Z,6.70
2019-02-12T18:41:17.343Z,6.80
2019-02-12T18:46:22.024Z,6.90
2019-02-12T18:51:26.381Z,6.90
2019-02-12T18:56:30.654Z,6.60
2019-02-12T19:01:34.939Z,6.60
2019-02-12T19:06:39.242Z,6.80
2019-02-12T19:11:52.612Z,6.80
2019-02-12T19:16:49.583Z,6.80
2019-02-12T19:21:55.385Z,6.80
2019-02-12T19:26:59.642Z,6.80
2019-02-12T19:32:03.965Z,6.80
2019-02-12T19:37:08.323Z,6.80
2019-02-12T19:42:12.637Z,6.70
2019-02-12T19:47:16.869Z,6.70
2019-02-12T19:52:21.184Z,6.70
2019-02-12T19:57:25.405Z,6.70
2019-02-12T20:02:29.713Z,6.60
2019-02-12T20:07:33.944Z,6.70
2019-02-12T20:12:38.272Z,6.70
2019-02-12T20:17:42.516Z,6.70
2019-02-12T20:22:46.876Z,6.70
2019-02-12T20:27:52.613Z,6.60
2019-02-12T20:32:56.964Z,6.60
2019-02-12T20:38:01.308Z,6.70
2019-02-12T20:43:05.544Z,6.60
2019-02-12T20:48:09.856Z,6.50
2019-02-12T20:53:14.217Z,6.50
2019-02-12T20:58:18.457Z,6.60
2019-02-12T21:03:22.674Z,6.60
2019-02-12T21:08:26.880Z,6.70
2019-02-12T21:13:31.146Z,6.60
2019-02-12T21:18:35.396Z,6.50
2019-02-12T21:23:39.682Z,6.60
2019-02-12T21:28:44.038Z,6.60
2019-02-12T21:33:48.254Z,6.60
2019-02-12T21:38:52.556Z,6.70
2019-02-12T21:43:56.758Z,6.70
2019-02-12T21:49:00.964Z,6.70
2019-02-12T21:54:05.168Z,6.70
2019-02-12T21:59:09.464Z,6.70
2019-02-12T22:04:13.696Z,6.80
2019-02-12T22:09:17.894Z,6.80
2019-02-12T22:14:22.179Z,6.90
2019-02-12T22:19:26.466Z,6.90
2019-02-12T22:24:30.654Z,6.70
2019-02-12T22:29:34.922Z,6.80
2019-02-12T22:34:39.140Z,6.80
2019-02-12T22:39:43.374Z,6.90
2019-02-12T22:44:47.580Z,7.00
2019-02-12T22:49:51.780Z,6.90
2019-02-12T22:54:56.010Z,7.10
2019-02-12T23:00:00.368Z,7.30
2019-02-12T23:05:04.651Z,7.20
2019-02-12T23:10:09.415Z,7.10
2019-02-12T23:15:13.686Z,7.10
2019-02-12T23:20:17.911Z,7.00
2019-02-12T23:25:23.076Z,7.10
2019-02-12T23:30:30.038Z,7.10
2019-02-12T23:35:34.268Z,7.10
2019-02-12T23:40:38.475Z,7.20
2019-02-12T23:45:42.709Z,7.20
2019-02-12T23:50:46.908Z,7.10
2019-02-12T23:55:51.363Z,7.20
